Pagrindinis puslapis
METAR-TAF:

METAR-TAF

Oro uostai :

Fort Myers, Florida, Jungtinės Amerikos Valstijos

platuma: 26-35-03N, ilguma: 081-51-45W, Aukštis: 5 m

Dabartinis oras

Ataskaita buvo paskelbta 17 minutes, ne 00:53 UTC
Vėjas 5 kt iš Pietų
Temperatūra 22°C
Drėgmė 69%
Slėgis 1016 hPa
Matomumas: 16.1 km
Giedras dangus

METAR: KFMY 250053Z 19005KT 10SM CLR 22/16 A2999 RMK AO2 SLP158 T02220156

Laikas: 20:10 (01:10 UTC)

Prognozė

Ataskaita buvo paskelbta 1 valandą ir 47 minutes, ne 23:23 UTC
Prognozė galioja nuo 25 metu 00 UTC su 25 metu 24 UTC
Vėjas 6 kt iš Pietų
Matomumas: 10 km
Mažai debesys ne aukštis 3000 ft
Išsisklaidę debesys ne aukštis 25000 ft
Nuo 25 metu 1500 UTC
Vėjas 14 kt iš Pietų/Pietvakarių su gūsio iki 22 kt
Matomumas: 10 km
Išsisklaidę debesys ne aukštis 4000 ft
Su prošvaistėmis ne aukštis 25000 ft

TAF: KFMY 242323Z 2500/2524 19006KT P6SM FEW030 SCT250 FM251500 20014G22KT P6SM SCT040 BKN250

Orai ataskaitas ir orų prognozės (METAR, TAF).

turimą stotys yra geltonos ir raudonos taškus žemėlapyje.

Perkelti pele per norėdami pamatyti stoties vardą.

Tada spustelėkite, norėdami matyti oro stebėjimo ir prognozės.

Norėdami pakeisti žemėlapį: spustelėkite ant žalios mygtukų su juodo kryžiaus žemyn,; žalią mygtuką su brūkšneliu, jei norite nutolinti; arba žalių rodyklių gretimoms žemėlapius.


METAR-TAF: